Time;durP1;ratioP1;P1;durP2;ratioP2;P2;SDS_P1;SDS_P2;PMS_P1;PMS_P2;Temp;Humidity;BMP_temperature;BMP_pressure;BME280_temperature;BME280_humidity;BME280_pressure;Samples;Min_cycle;Max_cycle;Signal;HPM_P1;HPM_P2
2022/10/06 00:01:10;;;;;;;5.17;3.53;;;;;;;;;;5156041;27;20450;-73
2022/10/06 00:03:38;;;;;;;5.83;4.07;;;;;;;;;;5155593;27;20454;-73
2022/10/06 00:06:06;;;;;;;3.80;2.90;;;;;;;;;;5155926;27;20837;-73
2022/10/06 00:08:33;;;;;;;6.83;3.87;;;;;;;;;;5156117;27;20955;-73
2022/10/06 00:11:01;;;;;;;4.63;3.20;;;;;;;;;;5155941;27;20458;-73
2022/10/06 00:13:30;;;;;;;4.13;3.30;;;;;;;;;;5155877;27;20893;-72
2022/10/06 00:15:57;;;;;;;5.00;3.30;;;;;;;;;;5155793;27;20986;-73
2022/10/06 00:18:24;;;;;;;3.20;2.87;;;;;;;;;;5155430;27;20451;-73
2022/10/06 00:20:55;;;;;;;2.93;2.63;;;;;;;;;;5155048;27;20454;-73
2022/10/06 00:23:22;;;;;;;3.13;2.83;;;;;;;;;;5155472;27;20443;-73
2022/10/06 00:25:50;;;;;;;6.00;3.70;;;;;;;;;;5155369;27;20506;-73
2022/10/06 00:28:17;;;;;;;4.83;3.10;;;;;;;;;;5155501;27;20806;-73
2022/10/06 00:30:46;;;;;;;4.50;3.10;;;;;;;;;;5154985;27;20474;-73
2022/10/06 00:33:14;;;;;;;4.23;3.00;;;;;;;;;;5154720;27;20448;-73
2022/10/06 00:35:42;;;;;;;4.43;3.57;;;;;;;;;;5154814;27;20583;-73
2022/10/06 00:38:11;;;;;;;3.90;3.20;;;;;;;;;;5154639;27;20451;-73
2022/10/06 00:40:43;;;;;;;4.50;3.50;;;;;;;;;;5155017;27;20452;-73
2022/10/06 00:43:25;;;;;;;4.17;3.53;;;;;;;;;;5154733;27;20979;-72
2022/10/06 00:45:54;;;;;;;6.07;4.20;;;;;;;;;;5153753;27;20950;-73
2022/10/06 00:48:23;;;;;;;5.80;3.57;;;;;;;;;;5155036;27;20442;-73
2022/10/06 00:50:51;;;;;;;6.17;3.30;;;;;;;;;;5155003;27;20444;-73
2022/10/06 00:53:18;;;;;;;6.17;3.73;;;;;;;;;;5155045;27;20444;-73
2022/10/06 00:55:45;;;;;;;9.40;3.30;;;;;;;;;;5154492;27;20463;-73
2022/10/06 00:58:13;;;;;;;3.87;3.47;;;;;;;;;;5154684;27;20829;-73
2022/10/06 01:00:42;;;;;;;3.50;3.00;;;;;;;;;;5154388;27;20956;-73
2022/10/06 01:03:12;;;;;;;3.10;2.80;;;;;;;;;;5154284;27;20470;-73
2022/10/06 01:05:42;;;;;;;4.57;2.80;;;;;;;;;;5154366;27;20487;-73
2022/10/06 01:08:09;;;;;;;4.77;2.70;;;;;;;;;;5154284;27;20453;-73
2022/10/06 01:10:36;;;;;;;7.13;3.50;;;;;;;;;;5154139;27;20462;-73
2022/10/06 01:13:05;;;;;;;3.20;2.90;;;;;;;;;;5154592;27;20428;-73
2022/10/06 01:15:33;;;;;;;6.27;3.60;;;;;;;;;;5154168;27;20470;-73
2022/10/06 01:18:01;;;;;;;5.60;3.70;;;;;;;;;;5154363;27;20496;-73
2022/10/06 01:20:31;;;;;;;4.20;2.90;;;;;;;;;;5153440;27;20452;-73
2022/10/06 01:23:03;;;;;;;9.23;2.67;;;;;;;;;;5154117;27;20452;-73
2022/10/06 01:25:32;;;;;;;3.00;2.53;;;;;;;;;;5154202;27;20491;-73
2022/10/06 01:27:59;;;;;;;7.90;3.37;;;;;;;;;;5154084;27;20428;-73
2022/10/06 01:30:28;;;;;;;4.27;3.13;;;;;;;;;;5154201;27;20967;-73
2022/10/06 01:32:55;;;;;;;4.27;3.40;;;;;;;;;;5154163;27;20451;-73
2022/10/06 01:35:23;;;;;;;4.40;3.30;;;;;;;;;;5153944;27;20901;-73
2022/10/06 01:37:50;;;;;;;4.40;4.00;;;;;;;;;;5154359;27;20448;-73
2022/10/06 01:40:19;;;;;;;6.00;3.60;;;;;;;;;;5154047;27;20455;-73
2022/10/06 01:42:46;;;;;;;4.37;3.70;;;;;;;;;;5154035;27;20448;-73
2022/10/06 01:45:13;;;;;;;7.57;4.00;;;;;;;;;;5153924;27;20498;-73
2022/10/06 01:47:40;;;;;;;5.70;3.40;;;;;;;;;;5154078;27;20447;-73
2022/10/06 01:50:08;;;;;;;4.80;4.40;;;;;;;;;;5153972;27;20442;-73
2022/10/06 01:52:35;;;;;;;9.90;3.90;;;;;;;;;;5154123;27;20822;-73
2022/10/06 01:55:02;;;;;;;6.10;4.30;;;;;;;;;;5153825;27;20460;-73
2022/10/06 01:57:31;;;;;;;9.93;7.13;;;;;;;;;;5154099;27;20483;-73
2022/10/06 01:59:58;;;;;;;8.33;6.07;;;;;;;;;;5154162;27;20451;-73
2022/10/06 02:02:25;;;;;;;7.73;5.70;;;;;;;;;;5153767;27;20488;-73
2022/10/06 02:04:52;;;;;;;8.50;5.37;;;;;;;;;;5153648;27;20490;-73
2022/10/06 02:07:19;;;;;;;6.17;4.40;;;;;;;;;;5153785;27;20460;-73
2022/10/06 02:09:46;;;;;;;6.83;4.30;;;;;;;;;;5154003;27;20439;-72
2022/10/06 02:12:14;;;;;;;5.73;3.73;;;;;;;;;;5153594;27;20944;-73
2022/10/06 02:14:43;;;;;;;9.90;6.67;;;;;;;;;;5153800;27;20470;-73
2022/10/06 02:17:10;;;;;;;6.83;5.77;;;;;;;;;;5153859;27;20454;-73
2022/10/06 02:19:37;;;;;;;6.93;5.20;;;;;;;;;;5153621;27;20816;-72
2022/10/06 02:22:05;;;;;;;6.50;4.07;;;;;;;;;;5153676;27;20944;-73
2022/10/06 02:24:32;;;;;;;8.40;5.97;;;;;;;;;;5153545;27;20474;-72
2022/10/06 02:26:59;;;;;;;10.90;7.40;;;;;;;;;;5153769;27;20948;-73
2022/10/06 02:29:26;;;;;;;8.57;5.77;;;;;;;;;;5153814;27;20901;-73
2022/10/06 02:31:55;;;;;;;4.90;4.40;;;;;;;;;;5154496;27;20451;-73
2022/10/06 02:34:22;;;;;;;8.50;5.80;;;;;;;;;;5157325;27;20936;-72
2022/10/06 02:36:49;;;;;;;13.60;6.53;;;;;;;;;;5157238;27;20444;-73
2022/10/06 02:39:16;;;;;;;6.10;4.53;;;;;;;;;;5157627;27;20456;-73
2022/10/06 02:41:43;;;;;;;4.90;4.40;;;;;;;;;;5157118;27;20486;-73
2022/10/06 02:44:11;;;;;;;6.80;4.17;;;;;;;;;;5156514;27;20456;-72
2022/10/06 02:46:38;;;;;;;4.30;3.53;;;;;;;;;;5157431;27;20824;-73
2022/10/06 02:49:06;;;;;;;5.70;4.40;;;;;;;;;;5157497;27;20432;-73
2022/10/06 02:51:34;;;;;;;3.43;3.13;;;;;;;;;;5157548;27;20450;-73
2022/10/06 02:54:01;;;;;;;4.70;3.23;;;;;;;;;;5157425;27;20458;-73
2022/10/06 02:56:28;;;;;;;6.83;3.20;;;;;;;;;;5157396;27;20464;-73
2022/10/06 02:58:55;;;;;;;5.57;4.50;;;;;;;;;;5157123;27;20447;-73
2022/10/06 03:01:24;;;;;;;6.93;3.50;;;;;;;;;;5156862;27;20520;-73
2022/10/06 03:03:51;;;;;;;7.00;5.03;;;;;;;;;;5156864;27;20462;-72
2022/10/06 03:06:24;;;;;;;8.60;5.57;;;;;;;;;;5156884;27;20497;-72
2022/10/06 03:08:51;;;;;;;15.47;7.60;;;;;;;;;;5157165;27;20925;-73
2022/10/06 03:11:19;;;;;;;7.13;5.10;;;;;;;;;;5156630;27;20838;-73
2022/10/06 03:13:46;;;;;;;8.20;3.80;;;;;;;;;;5156751;27;20455;-72
2022/10/06 03:16:17;;;;;;;5.43;4.17;;;;;;;;;;5156742;27;20471;-73
2022/10/06 03:18:45;;;;;;;10.87;6.40;;;;;;;;;;5156333;27;20454;-73
2022/10/06 03:21:13;;;;;;;11.20;5.60;;;;;;;;;;5156446;27;20984;-73
2022/10/06 03:23:42;;;;;;;5.30;3.50;;;;;;;;;;5156433;27;20432;-72
2022/10/06 03:26:09;;;;;;;5.40;3.27;;;;;;;;;;5156175;27;20567;-73
2022/10/06 03:28:37;;;;;;;5.77;3.23;;;;;;;;;;5156493;27;20444;-73
2022/10/06 03:31:05;;;;;;;8.00;2.90;;;;;;;;;;5156413;27;20968;-73
2022/10/06 03:33:33;;;;;;;5.43;2.93;;;;;;;;;;5155958;27;20504;-72
2022/10/06 03:36:01;;;;;;;3.50;2.97;;;;;;;;;;5156302;27;21039;-73
2022/10/06 03:38:28;;;;;;;4.13;2.77;;;;;;;;;;5156433;27;20929;-72
2022/10/06 03:41:03;;;;;;;4.20;3.37;;;;;;;;;;5156402;27;20830;-72
2022/10/06 03:43:30;;;;;;;5.40;3.53;;;;;;;;;;5155636;27;20455;-72
2022/10/06 03:45:59;;;;;;;4.17;2.90;;;;;;;;;;5156563;27;20861;-72
2022/10/06 03:48:26;;;;;;;4.20;3.10;;;;;;;;;;5156822;27;20442;-72
2022/10/06 03:50:54;;;;;;;5.70;3.07;;;;;;;;;;5156522;27;20443;-72
2022/10/06 03:53:24;;;;;;;3.30;3.00;;;;;;;;;;5156253;27;20444;-72
2022/10/06 03:55:52;;;;;;;3.13;2.80;;;;;;;;;;5155981;27;20535;-72
2022/10/06 03:58:20;;;;;;;4.20;3.23;;;;;;;;;;5156438;27;20444;-73
2022/10/06 04:00:47;;;;;;;3.70;3.17;;;;;;;;;;5156500;27;20817;-73
2022/10/06 04:03:19;;;;;;;6.97;5.37;;;;;;;;;;5156102;27;20444;-72
2022/10/06 04:05:52;;;;;;;4.90;3.30;;;;;;;;;;5155999;27;20896;-73
2022/10/06 04:08:19;;;;;;;4.57;3.37;;;;;;;;;;5156084;27;20432;-73
2022/10/06 04:10:46;;;;;;;4.20;3.47;;;;;;;;;;5156087;27;20440;-73
2022/10/06 04:13:15;;;;;;;8.70;4.30;;;;;;;;;;5155972;27;20438;-72
2022/10/06 04:15:44;;;;;;;6.37;4.43;;;;;;;;;;5155499;27;20467;-72
2022/10/06 04:18:11;;;;;;;5.53;4.07;;;;;;;;;;5156008;27;20447;-72
2022/10/06 04:20:38;;;;;;;5.10;3.40;;;;;;;;;;5155823;27;20791;-72
2022/10/06 04:23:06;;;;;;;14.87;4.10;;;;;;;;;;5156042;27;20436;-72
2022/10/06 04:25:33;;;;;;;10.33;6.03;;;;;;;;;;5155535;27;20491;-72
2022/10/06 04:28:00;;;;;;;4.90;3.93;;;;;;;;;;5155642;27;20451;-73
2022/10/06 04:30:28;;;;;;;4.27;3.83;;;;;;;;;;5155719;27;20470;-72
2022/10/06 04:32:56;;;;;;;4.70;3.60;;;;;;;;;;5155837;27;21032;-72
2022/10/06 04:35:23;;;;;;;4.60;3.97;;;;;;;;;;5155527;27;20525;-72
2022/10/06 04:37:51;;;;;;;7.67;4.80;;;;;;;;;;5155708;27;20443;-72
2022/10/06 04:40:18;;;;;;;7.07;3.80;;;;;;;;;;5155630;27;20464;-73
2022/10/06 04:42:46;;;;;;;10.50;6.10;;;;;;;;;;5155250;27;20818;-72
2022/10/06 04:45:13;;;;;;;12.10;6.70;;;;;;;;;;5154985;27;20471;-72
2022/10/06 04:47:40;;;;;;;10.43;5.43;;;;;;;;;;5155593;27;20448;-72
2022/10/06 04:50:09;;;;;;;6.33;3.37;;;;;;;;;;5155430;27;20455;-72
2022/10/06 04:52:36;;;;;;;4.93;3.07;;;;;;;;;;5155358;27;20933;-72
2022/10/06 04:55:04;;;;;;;6.90;4.10;;;;;;;;;;5154301;27;21008;-73
2022/10/06 04:57:31;;;;;;;3.67;3.37;;;;;;;;;;5155316;27;20913;-72
2022/10/06 05:02:43;;;;;;;5.50;4.20;;;;;;;;;;5155011;27;20461;-73
2022/10/06 05:05:11;;;;;;;5.60;3.30;;;;;;;;;;5154928;27;20546;-72
2022/10/06 05:07:38;;;;;;;4.70;3.20;;;;;;;;;;5154946;27;20857;-72
2022/10/06 05:10:06;;;;;;;7.33;3.13;;;;;;;;;;5154817;27;20432;-73
2022/10/06 05:12:33;;;;;;;9.40;6.53;;;;;;;;;;5154759;27;20460;-72
2022/10/06 05:15:02;;;;;;;12.27;6.80;;;;;;;;;;5154676;27;20502;-72
2022/10/06 05:17:29;;;;;;;9.07;5.07;;;;;;;;;;5154687;27;20492;-72
2022/10/06 05:19:56;;;;;;;5.03;4.10;;;;;;;;;;5154795;27;20453;-72
2022/10/06 05:22:25;;;;;;;3.50;2.90;;;;;;;;;;5154969;27;20428;-72
2022/10/06 05:24:52;;;;;;;4.67;2.93;;;;;;;;;;5154710;27;20471;-72
2022/10/06 05:27:20;;;;;;;5.20;3.67;;;;;;;;;;5155173;27;21038;-72
2022/10/06 05:29:47;;;;;;;6.10;3.80;;;;;;;;;;5154881;27;20868;-72
2022/10/06 05:32:14;;;;;;;5.13;3.90;;;;;;;;;;5154859;27;20929;-72
2022/10/06 05:34:41;;;;;;;5.40;4.00;;;;;;;;;;5154655;27;20494;-72
2022/10/06 05:37:08;;;;;;;7.37;4.30;;;;;;;;;;5154800;27;20936;-72
2022/10/06 05:39:37;;;;;;;6.67;5.57;;;;;;;;;;5154888;27;20450;-72
2022/10/06 05:42:04;;;;;;;8.80;3.43;;;;;;;;;;5154819;27;20830;-72
2022/10/06 05:44:31;;;;;;;2.97;2.53;;;;;;;;;;5154060;27;20471;-72
2022/10/06 05:46:58;;;;;;;4.63;3.40;;;;;;;;;;5154748;27;20860;-72
2022/10/06 05:49:25;;;;;;;5.20;3.03;;;;;;;;;;5154390;27;20436;-72
2022/10/06 05:51:52;;;;;;;3.30;2.50;;;;;;;;;;5154705;27;20916;-72
2022/10/06 05:54:20;;;;;;;3.93;3.00;;;;;;;;;;5154421;27;20498;-72
2022/10/06 05:56:48;;;;;;;6.70;3.07;;;;;;;;;;5154643;27;20439;-72
2022/10/06 05:59:15;;;;;;;2.73;2.50;;;;;;;;;;5154523;27;20442;-72
2022/10/06 06:01:43;;;;;;;2.70;2.40;;;;;;;;;;5154600;27;20956;-72
2022/10/06 06:04:11;;;;;;;2.90;2.30;;;;;;;;;;5153976;27;20451;-72
2022/10/06 06:06:39;;;;;;;2.73;2.30;;;;;;;;;;5156418;27;20491;-72
2022/10/06 06:09:07;;;;;;;2.53;2.33;;;;;;;;;;5158597;27;20452;-72
2022/10/06 06:11:34;;;;;;;3.83;3.40;;;;;;;;;;5158256;27;20467;-72
2022/10/06 06:14:04;;;;;;;3.53;2.93;;;;;;;;;;5158472;27;20449;-72
2022/10/06 06:16:31;;;;;;;5.33;3.13;;;;;;;;;;5158711;27;20460;-72
2022/10/06 06:18:58;;;;;;;3.57;2.63;;;;;;;;;;5158228;27;20936;-72
2022/10/06 06:21:26;;;;;;;3.27;2.37;;;;;;;;;;5158168;27;20855;-72
2022/10/06 06:23:53;;;;;;;4.67;3.97;;;;;;;;;;5158153;27;20447;-72
2022/10/06 06:26:22;;;;;;;4.83;3.10;;;;;;;;;;5158115;27;20846;-72
2022/10/06 06:28:50;;;;;;;6.33;4.17;;;;;;;;;;5158347;27;20452;-72
2022/10/06 06:31:20;;;;;;;3.20;2.17;;;;;;;;;;5157722;27;20452;-72
2022/10/06 06:33:47;;;;;;;3.03;1.90;;;;;;;;;;5157863;27;20993;-72
2022/10/06 06:36:15;;;;;;;2.73;2.00;;;;;;;;;;5157829;27;20467;-73
2022/10/06 06:38:43;;;;;;;2.50;2.07;;;;;;;;;;5157697;27;20451;-73
2022/10/06 06:41:13;;;;;;;5.10;2.00;;;;;;;;;;5158134;27;20451;-73
2022/10/06 06:43:41;;;;;;;2.93;1.90;;;;;;;;;;5157157;27;20451;-73
2022/10/06 06:46:08;;;;;;;3.90;2.10;;;;;;;;;;5157474;27;20840;-73
2022/10/06 06:48:37;;;;;;;3.67;1.83;;;;;;;;;;5157626;27;20440;-73
2022/10/06 06:51:05;;;;;;;3.40;2.00;;;;;;;;;;5157805;27;21001;-73
2022/10/06 06:53:32;;;;;;;8.33;2.00;;;;;;;;;;5157609;27;20955;-73
2022/10/06 06:55:59;;;;;;;2.00;1.80;;;;;;;;;;5157675;27;20468;-73
2022/10/06 06:58:27;;;;;;;2.03;1.60;;;;;;;;;;5157490;27;20451;-72
2022/10/06 07:00:54;;;;;;;3.33;1.90;;;;;;;;;;5157539;27;20808;-73
2022/10/06 07:03:22;;;;;;;2.67;2.17;;;;;;;;;;5157323;27;20458;-73
2022/10/06 07:05:51;;;;;;;6.00;2.20;;;;;;;;;;5157232;27;20467;-73
2022/10/06 07:08:19;;;;;;;5.10;3.70;;;;;;;;;;5157198;27;20451;-73
2022/10/06 07:10:47;;;;;;;5.10;2.50;;;;;;;;;;5156825;27;20459;-73
2022/10/06 07:13:15;;;;;;;4.43;2.20;;;;;;;;;;5157221;27;20494;-73
2022/10/06 07:26:44;;;;;;;4.93;1.80;;;;;;;;;;5156881;27;20470;-72
2022/10/06 07:29:11;;;;;;;7.17;2.47;;;;;;;;;;5156886;27;20454;-73
2022/10/06 07:31:41;;;;;;;2.60;2.00;;;;;;;;;;5156624;27;20449;-72
2022/10/06 07:34:08;;;;;;;3.07;1.80;;;;;;;;;;5156470;27;20450;-73
2022/10/06 07:36:37;;;;;;;5.00;2.00;;;;;;;;;;5156660;27;20448;-73
2022/10/06 07:39:04;;;;;;;3.70;1.70;;;;;;;;;;5156604;27;20447;-73
2022/10/06 07:41:32;;;;;;;6.60;1.80;;;;;;;;;;5156667;27;20447;-73
2022/10/06 07:43:59;;;;;;;6.70;3.57;;;;;;;;;;5156202;27;20514;-73
2022/10/06 07:46:26;;;;;;;2.20;1.80;;;;;;;;;;5156190;27;20488;-73
2022/10/06 07:48:53;;;;;;;11.93;2.10;;;;;;;;;;5156422;27;20448;-73
2022/10/06 07:51:23;;;;;;;4.03;2.40;;;;;;;;;;5156335;27;20818;-73
2022/10/06 07:53:52;;;;;;;2.03;1.67;;;;;;;;;;5156197;27;20500;-73
2022/10/06 07:56:20;;;;;;;2.50;1.93;;;;;;;;;;5156322;27;20471;-73
2022/10/06 07:58:47;;;;;;;3.67;2.17;;;;;;;;;;5156537;27;20454;-73
2022/10/06 08:01:16;;;;;;;4.23;3.07;;;;;;;;;;5156359;27;20479;-73
2022/10/06 08:03:44;;;;;;;1.70;1.60;;;;;;;;;;5156087;27;20448;-73
2022/10/06 08:06:13;;;;;;;2.37;2.17;;;;;;;;;;5155845;27;20491;-73
2022/10/06 08:08:40;;;;;;;3.30;1.70;;;;;;;;;;5156290;27;20932;-73
2022/10/06 08:11:09;;;;;;;3.27;2.00;;;;;;;;;;5156021;27;21016;-73
2022/10/06 08:13:36;;;;;;;2.87;1.80;;;;;;;;;;5156072;27;20444;-73
2022/10/06 08:16:04;;;;;;;2.20;1.70;;;;;;;;;;5155787;27;20472;-73
2022/10/06 08:18:31;;;;;;;3.10;2.10;;;;;;;;;;5155719;27;20539;-73
2022/10/06 08:20:59;;;;;;;7.00;2.07;;;;;;;;;;5155810;27;20967;-73
2022/10/06 08:23:26;;;;;;;2.80;2.20;;;;;;;;;;5155711;27;20511;-73
2022/10/06 08:25:55;;;;;;;6.97;3.10;;;;;;;;;;5155806;27;20529;-73
2022/10/06 08:28:24;;;;;;;4.77;2.50;;;;;;;;;;5155461;27;20490;-73
2022/10/06 08:30:51;;;;;;;2.73;1.60;;;;;;;;;;5154779;27;20822;-73
2022/10/06 08:33:19;;;;;;;3.40;1.73;;;;;;;;;;5155470;27;20820;-73
2022/10/06 08:35:46;;;;;;;2.87;1.73;;;;;;;;;;5155506;27;21006;-73
2022/10/06 08:38:14;;;;;;;2.27;1.83;;;;;;;;;;5155525;27;20811;-73
2022/10/06 08:40:43;;;;;;;2.93;1.70;;;;;;;;;;5155802;27;20435;-73
2022/10/06 08:43:14;;;;;;;2.57;1.87;;;;;;;;;;5155413;27;20443;-73
2022/10/06 08:45:44;;;;;;;2.00;1.70;;;;;;;;;;5155173;27;20976;-73
2022/10/06 08:48:13;;;;;;;3.50;1.90;;;;;;;;;;5155546;27;20467;-73
2022/10/06 08:50:46;;;;;;;2.27;1.63;;;;;;;;;;5155524;27;20468;-73
2022/10/06 08:53:17;;;;;;;2.70;2.13;;;;;;;;;;5155244;27;20451;-73
2022/10/06 08:55:47;;;;;;;3.80;1.77;;;;;;;;;;5154903;27;20496;-73
2022/10/06 08:58:20;;;;;;;2.30;1.60;;;;;;;;;;5155399;27;20439;-73
2022/10/06 09:00:49;;;;;;;2.20;1.80;;;;;;;;;;5155131;27;20432;-73
2022/10/06 09:03:22;;;;;;;2.83;2.23;;;;;;;;;;5155267;27;20550;-73
2022/10/06 09:05:51;;;;;;;6.50;2.30;;;;;;;;;;5155138;27;20503;-73
2022/10/06 09:08:35;;;;;;;3.40;1.90;;;;;;;;;;5155175;27;20991;-73
2022/10/06 09:11:08;;;;;;;3.40;1.90;;;;;;;;;;5155083;27;20485;-73
2022/10/06 09:13:37;;;;;;;3.50;2.43;;;;;;;;;;5155168;27;20799;-73
2022/10/06 09:16:07;;;;;;;6.50;2.00;;;;;;;;;;5155100;27;20873;-73
2022/10/06 09:18:38;;;;;;;3.97;2.40;;;;;;;;;;5155101;27;20440;-73
2022/10/06 09:21:07;;;;;;;7.53;2.00;;;;;;;;;;5154519;27;20455;-73
2022/10/06 09:23:48;;;;;;;2.80;2.10;;;;;;;;;;5154590;27;20432;-73
2022/10/06 09:26:16;;;;;;;5.73;1.90;;;;;;;;;;5154622;27;20479;-73
2022/10/06 09:28:44;;;;;;;2.47;2.03;;;;;;;;;;5154513;27;20479;-73
2022/10/06 09:31:18;;;;;;;3.83;2.30;;;;;;;;;;5154961;27;20460;-73
2022/10/06 09:33:46;;;;;;;3.30;2.20;;;;;;;;;;5154793;27;20927;-73
2022/10/06 09:36:14;;;;;;;2.80;2.17;;;;;;;;;;5154874;27;20845;-73
2022/10/06 09:38:52;;;;;;;2.97;2.20;;;;;;;;;;5154867;27;20439;-73
2022/10/06 09:41:21;;;;;;;4.10;2.07;;;;;;;;;;5156336;27;20436;-73
2022/10/06 09:43:52;;;;;;;9.90;2.43;;;;;;;;;;5158053;27;20881;-73
2022/10/06 09:46:21;;;;;;;4.90;2.30;;;;;;;;;;5158530;27;20471;-73
2022/10/06 09:48:48;;;;;;;2.70;2.30;;;;;;;;;;5158474;27;20475;-73
2022/10/06 09:51:16;;;;;;;5.73;2.23;;;;;;;;;;5158426;27;20457;-73
2022/10/06 09:53:44;;;;;;;3.70;2.47;;;;;;;;;;5158120;27;20955;-72
2022/10/06 09:56:17;;;;;;;4.33;2.43;;;;;;;;;;5158059;27;20469;-73
2022/10/06 09:58:55;;;;;;;7.43;2.80;;;;;;;;;;5158329;27;20893;-73
2022/10/06 10:01:25;;;;;;;7.43;2.80;;;;;;;;;;5158037;27;20435;-73
2022/10/06 10:03:53;;;;;;;2.97;2.20;;;;;;;;;;5157982;27;20832;-73
2022/10/06 10:06:26;;;;;;;6.30;2.37;;;;;;;;;;5158140;27;20459;-73
2022/10/06 10:09:13;;;;;;;8.70;3.00;;;;;;;;;;5157650;27;20528;-73
2022/10/06 10:14:25;;;;;;;7.87;2.43;;;;;;;;;;5157527;27;20422;-73
2022/10/06 10:16:53;;;;;;;5.23;2.67;;;;;;;;;;5158082;27;20454;-73
2022/10/06 10:19:27;;;;;;;4.67;2.60;;;;;;;;;;5157536;27;20446;-73
2022/10/06 10:21:56;;;;;;;4.83;2.53;;;;;;;;;;5157625;27;20436;-73
2022/10/06 10:24:29;;;;;;;4.00;2.50;;;;;;;;;;5157342;27;20458;-73
2022/10/06 10:27:01;;;;;;;9.60;3.20;;;;;;;;;;5157788;27;20428;-73
2022/10/06 10:29:37;;;;;;;3.53;2.60;;;;;;;;;;5157858;27;20561;-73
2022/10/06 10:32:10;;;;;;;3.60;2.40;;;;;;;;;;5157458;27;20434;-73
2022/10/06 10:34:54;;;;;;;2.83;2.27;;;;;;;;;;5157501;27;20983;-73
2022/10/06 10:37:23;;;;;;;5.90;2.27;;;;;;;;;;5157689;27;20523;-73
2022/10/06 10:39:53;;;;;;;7.10;2.27;;;;;;;;;;5157506;27;20439;-73
2022/10/06 10:42:22;;;;;;;3.87;2.50;;;;;;;;;;5157044;27;20454;-73
2022/10/06 10:44:54;;;;;;;4.20;2.73;;;;;;;;;;5156542;27;20471;-73
2022/10/06 10:47:26;;;;;;;9.67;3.07;;;;;;;;;;5157046;27;20479;-73
2022/10/06 10:49:57;;;;;;;3.37;2.50;;;;;;;;;;5157576;27;20861;-73
2022/10/06 10:52:26;;;;;;;3.13;2.50;;;;;;;;;;5155970;27;20497;-73
2022/10/06 10:54:59;;;;;;;3.80;2.60;;;;;;;;;;5156930;27;21059;-73
2022/10/06 10:57:31;;;;;;;4.17;2.43;;;;;;;;;;5157198;27;20436;-74
2022/10/06 10:59:59;;;;;;;3.23;2.53;;;;;;;;;;5156879;27;20428;-73
2022/10/06 11:02:28;;;;;;;5.57;2.77;;;;;;;;;;5157050;27;20613;-73
2022/10/06 11:04:58;;;;;;;5.53;3.10;;;;;;;;;;5156734;27;20613;-74
2022/10/06 11:07:28;;;;;;;3.30;2.47;;;;;;;;;;5156533;27;20452;-73
2022/10/06 11:09:58;;;;;;;5.33;2.50;;;;;;;;;;5157055;27;20452;-74
2022/10/06 11:12:33;;;;;;;7.00;3.03;;;;;;;;;;5156539;27;20464;-73
2022/10/06 11:15:02;;;;;;;4.43;2.43;;;;;;;;;;5156628;27;20835;-73
2022/10/06 11:17:43;;;;;;;3.50;2.70;;;;;;;;;;5156765;27;20960;-74
2022/10/06 11:20:19;;;;;;;5.03;2.03;;;;;;;;;;5156810;27;20428;-74
2022/10/06 11:22:50;;;;;;;4.80;2.60;;;;;;;;;;5156316;27;20443;-73
2022/10/06 11:25:22;;;;;;;6.00;2.30;;;;;;;;;;5156399;27;20980;-73
2022/10/06 11:27:53;;;;;;;5.60;2.53;;;;;;;;;;5156328;27;20858;-73
2022/10/06 11:30:25;;;;;;;4.57;2.90;;;;;;;;;;5156208;27;20442;-74
2022/10/06 11:33:00;;;;;;;5.03;2.63;;;;;;;;;;5156749;27;20432;-73
2022/10/06 11:35:28;;;;;;;3.13;2.40;;;;;;;;;;5156367;27;20531;-74
2022/10/06 11:37:59;;;;;;;7.73;3.80;;;;;;;;;;5156378;27;20448;-73
2022/10/06 11:40:42;;;;;;;3.03;2.33;;;;;;;;;;5156364;27;20448;-73
2022/10/06 11:43:14;;;;;;;3.67;2.23;;;;;;;;;;5153286;27;20463;-73
2022/10/06 11:45:44;;;;;;;6.23;2.30;;;;;;;;;;5156054;27;20568;-73
2022/10/06 11:48:22;;;;;;;7.47;2.50;;;;;;;;;;5156185;27;20536;-73
2022/10/06 11:50:54;;;;;;;8.80;2.77;;;;;;;;;;5156404;27;20523;-73
2022/10/06 11:53:40;;;;;;;2.90;2.50;;;;;;;;;;5155841;27;20467;-73
2022/10/06 11:56:26;;;;;;;5.60;2.30;;;;;;;;;;5155719;27;20475;-73
2022/10/06 11:59:12;;;;;;;4.73;2.30;;;;;;;;;;5156290;27;20885;-73
2022/10/06 12:01:52;;;;;;;4.20;2.27;;;;;;;;;;5155945;27;20887;-73
2022/10/06 12:04:21;;;;;;;7.03;2.80;;;;;;;;;;5155458;27;20454;-73
2022/10/06 12:07:06;;;;;;;9.00;2.27;;;;;;;;;;5155938;27;20462;-73
2022/10/06 12:09:41;;;;;;;5.73;2.40;;;;;;;;;;5155891;27;20865;-73
2022/10/06 12:12:26;;;;;;;4.90;2.17;;;;;;;;;;5155287;27;20838;-73
2022/10/06 12:14:58;;;;;;;4.60;2.40;;;;;;;;;;5155000;27;20477;-73
2022/10/06 12:17:29;;;;;;;4.20;2.57;;;;;;;;;;5155770;27;20842;-73
2022/10/06 12:20:02;;;;;;;5.17;2.50;;;;;;;;;;5155616;27;20810;-73
2022/10/06 12:22:33;;;;;;;3.53;2.53;;;;;;;;;;5155542;27;20435;-73
2022/10/06 12:25:05;;;;;;;5.83;2.17;;;;;;;;;;5154925;27;20482;-74
2022/10/06 12:27:40;;;;;;;3.70;2.40;;;;;;;;;;5155063;27;20453;-73
2022/10/06 12:30:17;;;;;;;3.13;2.07;;;;;;;;;;5155449;27;20904;-74
2022/10/06 12:32:46;;;;;;;9.73;3.70;;;;;;;;;;5154947;27;20439;-74
2022/10/06 12:35:24;;;;;;;5.53;2.23;;;;;;;;;;5154736;27;20464;-73
2022/10/06 12:37:52;;;;;;;7.63;2.80;;;;;;;;;;5154980;27;20530;-73
2022/10/06 12:40:39;;;;;;;3.20;1.90;;;;;;;;;;5154891;27;20440;-73
2022/10/06 12:43:24;;;;;;;3.87;2.27;;;;;;;;;;5154658;27;20556;-73
2022/10/06 12:45:55;;;;;;;4.53;1.90;;;;;;;;;;5154928;27;20472;-74
2022/10/06 12:48:25;;;;;;;8.57;2.30;;;;;;;;;;5154951;27;20551;-73
2022/10/06 12:50:57;;;;;;;5.40;2.40;;;;;;;;;;5155155;27;20456;-73
2022/10/06 12:53:31;;;;;;;4.93;2.53;;;;;;;;;;5154660;27;20452;-73
2022/10/06 12:56:01;;;;;;;3.83;2.90;;;;;;;;;;5154964;27;20871;-74
2022/10/06 12:58:31;;;;;;;4.00;2.33;;;;;;;;;;5154875;27;20428;-73
2022/10/06 13:01:00;;;;;;;4.70;2.33;;;;;;;;;;5154857;27;20456;-73
2022/10/06 13:03:27;;;;;;;4.00;2.47;;;;;;;;;;5154776;27;20443;-73
2022/10/06 13:05:58;;;;;;;3.33;2.37;;;;;;;;;;5154788;27;20810;-73
2022/10/06 13:08:26;;;;;;;6.20;2.40;;;;;;;;;;5154688;27;20479;-73
2022/10/06 13:11:08;;;;;;;5.10;3.07;;;;;;;;;;5154545;27;20459;-73
2022/10/06 13:13:36;;;;;;;3.43;2.20;;;;;;;;;;5154698;27;20440;-73
2022/10/06 13:16:04;;;;;;;8.70;2.83;;;;;;;;;;5153943;27;21035;-73
2022/10/06 13:18:32;;;;;;;9.47;6.17;;;;;;;;;;5154501;27;20470;-73
2022/10/06 13:21:01;;;;;;;15.80;3.10;;;;;;;;;;5153953;27;20436;-73
2022/10/06 13:23:29;;;;;;;3.43;2.30;;;;;;;;;;5154007;27;20538;-72
2022/10/06 13:25:57;;;;;;;8.03;2.43;;;;;;;;;;5154161;27;20475;-73
2022/10/06 13:28:29;;;;;;;3.00;2.33;;;;;;;;;;5154382;27;20483;-73
2022/10/06 13:30:57;;;;;;;4.57;2.67;;;;;;;;;;5154257;27;20438;-72
2022/10/06 13:33:26;;;;;;;4.90;4.00;;;;;;;;;;5154070;27;20459;-72
2022/10/06 13:35:54;;;;;;;7.50;2.17;;;;;;;;;;5154035;27;20478;-73
2022/10/06 13:38:22;;;;;;;2.73;2.10;;;;;;;;;;5154388;27;20448;-73
2022/10/06 13:41:06;;;;;;;5.73;2.40;;;;;;;;;;5154128;27;20448;-73
2022/10/06 13:43:34;;;;;;;6.53;2.47;;;;;;;;;;5153627;27;20475;-73
2022/10/06 13:46:01;;;;;;;3.80;2.40;;;;;;;;;;5154216;27;20468;-73
2022/10/06 13:48:29;;;;;;;8.90;2.40;;;;;;;;;;5154003;27;20483;-73
2022/10/06 13:50:56;;;;;;;11.83;2.40;;;;;;;;;;5153881;27;20519;-73
2022/10/06 13:53:30;;;;;;;13.93;2.83;;;;;;;;;;5154226;27;20950;-73
2022/10/06 13:55:57;;;;;;;7.67;2.80;;;;;;;;;;5154477;27;20480;-73
2022/10/06 13:58:26;;;;;;;6.43;2.47;;;;;;;;;;5153839;27;20440;-73
2022/10/06 14:00:55;;;;;;;5.17;2.23;;;;;;;;;;5154205;27;20944;-76
2022/10/06 14:03:24;;;;;;;4.17;2.20;;;;;;;;;;5153834;27;20500;-73
2022/10/06 14:05:52;;;;;;;4.47;2.37;;;;;;;;;;5153881;27;20467;-73
2022/10/06 14:08:24;;;;;;;3.30;2.00;;;;;;;;;;5154049;27;20444;-73
2022/10/06 14:10:53;;;;;;;3.80;2.80;;;;;;;;;;5153586;27;20561;-73
2022/10/06 14:13:21;;;;;;;5.10;3.00;;;;;;;;;;5154001;27;20811;-73
2022/10/06 14:15:50;;;;;;;4.83;2.13;;;;;;;;;;5154017;27;20467;-73
2022/10/06 14:18:22;;;;;;;7.70;2.30;;;;;;;;;;5153741;27;20452;-73
2022/10/06 14:20:50;;;;;;;7.70;2.67;;;;;;;;;;5153697;27;20460;-73
2022/10/06 14:23:40;;;;;;;6.70;2.40;;;;;;;;;;5153937;27;20464;-73
2022/10/06 14:26:09;;;;;;;3.60;2.10;;;;;;;;;;5153484;27;20467;-73
2022/10/06 14:28:37;;;;;;;4.03;2.20;;;;;;;;;;5157243;27;20494;-73
2022/10/06 14:31:04;;;;;;;8.80;3.60;;;;;;;;;;5157394;27;20451;-73
2022/10/06 14:33:31;;;;;;;7.77;3.10;;;;;;;;;;5157496;27;20454;-73
2022/10/06 14:35:58;;;;;;;8.77;3.07;;;;;;;;;;5157706;27;20466;-73
2022/10/06 14:38:25;;;;;;;5.10;2.47;;;;;;;;;;5157642;27;20462;-73
2022/10/06 14:40:52;;;;;;;4.13;2.73;;;;;;;;;;5157487;27;20455;-73
2022/10/06 14:43:21;;;;;;;5.90;2.40;;;;;;;;;;5157312;27;20449;-73
2022/10/06 14:45:48;;;;;;;6.00;2.93;;;;;;;;;;5157501;27;20990;-73
2022/10/06 14:48:15;;;;;;;6.13;2.43;;;;;;;;;;5157078;27;20444;-73
2022/10/06 14:50:43;;;;;;;6.73;2.97;;;;;;;;;;5157393;27;20451;-73
2022/10/06 14:53:11;;;;;;;3.80;2.40;;;;;;;;;;5157387;27;20456;-72
2022/10/06 14:55:38;;;;;;;4.43;2.90;;;;;;;;;;5156837;27;20831;-74
2022/10/06 14:58:06;;;;;;;6.37;3.00;;;;;;;;;;5157050;27;20500;-74
2022/10/06 15:00:34;;;;;;;9.17;4.60;;;;;;;;;;5156953;27;20432;-73
2022/10/06 15:03:01;;;;;;;8.90;3.63;;;;;;;;;;5157314;27;20519;-73
2022/10/06 15:05:28;;;;;;;10.63;4.50;;;;;;;;;;5157004;27;20490;-73
2022/10/06 15:08:10;;;;;;;8.33;2.83;;;;;;;;;;5156700;27;20524;-73
2022/10/06 15:10:37;;;;;;;15.37;4.13;;;;;;;;;;5156561;27;20459;-73
2022/10/06 15:13:06;;;;;;;6.13;2.70;;;;;;;;;;5156666;27;20519;-73